createdAt,value
2019-04-25T00:00:29.617Z,71.60
2019-04-25T00:15:29.877Z,71.80
2019-04-25T00:30:31.245Z,72.41
2019-04-25T00:45:31.681Z,70.93
2019-04-25T01:00:34.952Z,74.13
2019-04-25T01:15:35.144Z,77.50
2019-04-25T01:30:35.846Z,79.16
2019-04-25T01:45:36.030Z,79.40
2019-04-25T02:00:36.246Z,81.37
2019-04-25T02:15:36.377Z,82.01
2019-04-25T02:30:37.105Z,84.04
2019-04-25T02:45:37.919Z,83.73
2019-04-25T03:01:03.329Z,83.26
2019-04-25T03:16:00.448Z,81.44
2019-04-25T03:31:02.295Z,80.46
2019-04-25T03:46:07.080Z,81.52
2019-04-25T04:01:08.626Z,80.33
2019-04-25T04:16:10.511Z,81.43
2019-04-25T04:31:12.579Z,83.34
2019-04-25T04:46:17.168Z,85.35
2019-04-25T05:01:18.672Z,84.53
2019-04-25T05:16:19.762Z,82.21
2019-04-25T05:31:21.281Z,79.56
2019-04-25T05:46:21.894Z,74.88
2019-04-25T06:01:22.837Z,66.46
2019-04-25T06:16:27.048Z,65.15
2019-04-25T06:31:29.229Z,63.03
2019-04-25T06:46:30.216Z,53.37
2019-04-25T07:01:30.679Z,53.32
2019-04-25T07:16:31.568Z,55.81
2019-04-25T07:31:34.508Z,51.37
2019-04-25T07:46:38.609Z,49.04
2019-04-25T08:01:40.185Z,44.15
2019-04-25T08:16:40.377Z,41.06
2019-04-25T08:31:40.526Z,38.79
2019-04-25T08:46:41.575Z,37.88
2019-04-25T09:01:43.418Z,37.01
2019-04-25T09:16:45.326Z,33.21
2019-04-25T09:31:46.069Z,32.76
2019-04-25T09:46:47.734Z,29.58
2019-04-25T10:01:48.241Z,30.37
2019-04-25T10:16:48.181Z,27.56
2019-04-25T10:31:49.210Z,27.65
2019-04-25T10:46:49.634Z,27.20
2019-04-25T11:01:49.901Z,24.51
2019-04-25T11:16:50.413Z,23.69
2019-04-25T11:31:50.919Z,23.86
2019-04-25T11:46:51.334Z,20.31
2019-04-25T12:01:52.275Z,21.39
2019-04-25T12:16:53.206Z,22.09
2019-04-25T12:31:55.029Z,21.27
2019-04-25T12:46:55.646Z,20.26
2019-04-25T13:01:58.324Z,19.76
2019-04-25T13:16:58.522Z,18.66
2019-04-25T13:31:59.101Z,16.86
2019-04-25T13:46:59.259Z,16.17
2019-04-25T14:01:59.798Z,16.08
2019-04-25T14:16:59.955Z,15.34
2019-04-25T14:32:00.131Z,14.09
2019-04-25T14:47:00.388Z,13.92
2019-04-25T15:02:00.913Z,14.92
2019-04-25T15:17:01.121Z,15.14
2019-04-25T15:32:02.971Z,16.12
2019-04-25T15:47:03.170Z,17.00
2019-04-25T16:02:08.270Z,17.32
2019-04-25T16:17:08.594Z,17.76
2019-04-25T16:32:20.040Z,20.38
2019-04-25T16:47:13.921Z,22.72
2019-04-25T17:02:14.515Z,23.97
2019-04-25T17:17:15.331Z,27.20
2019-04-25T17:32:15.498Z,26.65
2019-04-25T17:47:15.750Z,31.49
2019-04-25T18:02:15.865Z,32.45
2019-04-25T18:17:16.100Z,36.63
2019-04-25T18:32:16.328Z,38.00
2019-04-25T18:47:16.495Z,42.90
2019-04-25T19:02:16.528Z,39.92
2019-04-25T19:17:16.712Z,43.00
2019-04-25T19:32:16.973Z,45.97
2019-04-25T19:47:17.050Z,47.56
2019-04-25T20:02:17.700Z,52.48
2019-04-25T20:17:18.031Z,56.61
2019-04-25T20:32:18.121Z,57.17
2019-04-25T20:47:18.213Z,57.43
2019-04-25T21:02:18.377Z,59.82
2019-04-25T21:17:18.472Z,60.46
2019-04-25T21:32:18.675Z,60.72
2019-04-25T21:47:19.354Z,61.66
2019-04-25T22:02:19.579Z,63.65
2019-04-25T22:17:19.678Z,63.89
2019-04-25T22:32:19.817Z,64.22
2019-04-25T22:47:20.245Z,65.07
2019-04-25T23:02:20.467Z,65.61
2019-04-25T23:17:20.646Z,67.35
2019-04-25T23:32:20.842Z,68.70
2019-04-25T23:47:20.990Z,69.04
